createdAt,value
2022-11-24T00:01:17.652Z,7.68
2022-11-24T00:03:46.327Z,7.75
2022-11-24T00:06:16.149Z,8.25
2022-11-24T00:08:45.328Z,8.65
2022-11-24T00:11:16.499Z,8.13
2022-11-24T00:13:44.326Z,7.97
2022-11-24T00:16:16.872Z,8.13
2022-11-24T00:18:46.646Z,8.05
2022-11-24T00:21:15.490Z,8.15
2022-11-24T00:23:43.689Z,7.75
2022-11-24T00:26:15.160Z,8.02
2022-11-24T00:28:43.818Z,7.70
2022-11-24T00:31:34.339Z,7.85
2022-11-24T00:34:04.660Z,7.75
2022-11-24T00:36:34.436Z,7.53
2022-11-24T00:39:13.637Z,7.70
2022-11-24T00:41:42.266Z,8.20
2022-11-24T00:44:10.750Z,7.75
2022-11-24T00:46:38.577Z,7.43
2022-11-24T00:49:06.378Z,7.88
2022-11-24T00:51:34.251Z,7.43
2022-11-24T00:54:01.824Z,7.53
2022-11-24T00:56:29.964Z,7.65
2022-11-24T00:58:58.216Z,7.65
2022-11-24T01:01:28.935Z,8.73
2022-11-24T01:03:56.581Z,8.07
2022-11-24T01:06:26.528Z,7.82
2022-11-24T01:08:54.774Z,7.85
2022-11-24T01:11:50.992Z,7.93
2022-11-24T01:14:18.779Z,7.50
2022-11-24T01:16:46.080Z,7.90
2022-11-24T01:19:13.561Z,7.80
2022-11-24T01:21:40.843Z,7.25
2022-11-24T01:24:09.578Z,7.30
2022-11-24T01:26:37.179Z,7.65
2022-11-24T01:29:05.038Z,7.30
2022-11-24T01:31:32.835Z,8.23
2022-11-24T01:34:00.295Z,7.85
2022-11-24T01:36:27.552Z,8.13
2022-11-24T01:38:55.000Z,8.00
2022-11-24T01:41:24.140Z,7.78
2022-11-24T01:43:53.551Z,8.07
2022-11-24T01:46:30.800Z,7.55
2022-11-24T01:49:17.864Z,7.63
2022-11-24T01:51:51.131Z,7.88
2022-11-24T01:54:25.693Z,7.90
2022-11-24T01:56:58.429Z,8.25
2022-11-24T01:59:26.764Z,7.65
2022-11-24T02:01:56.563Z,7.75
2022-11-24T02:04:31.669Z,7.30
2022-11-24T02:07:03.031Z,8.40
2022-11-24T02:09:42.907Z,7.55
2022-11-24T02:12:11.331Z,7.18
2022-11-24T02:14:41.914Z,8.00
2022-11-24T02:17:09.342Z,7.43
2022-11-24T02:19:44.919Z,7.20
2022-11-24T02:22:24.849Z,7.43
2022-11-24T02:24:59.096Z,6.88
2022-11-24T02:27:26.368Z,7.35
2022-11-24T02:29:53.860Z,7.55
2022-11-24T02:32:21.947Z,6.93
2022-11-24T02:34:50.002Z,7.03
2022-11-24T02:37:17.237Z,7.30
2022-11-24T02:39:44.701Z,8.02
2022-11-24T02:42:13.947Z,7.68
2022-11-24T02:44:47.271Z,8.05
2022-11-24T02:47:14.573Z,7.50
2022-11-24T02:49:42.209Z,7.20
2022-11-24T02:52:09.487Z,7.70
2022-11-24T02:54:37.292Z,7.15
2022-11-24T02:57:04.764Z,7.38
2022-11-24T02:59:32.248Z,8.38
2022-11-24T03:01:59.593Z,7.30
2022-11-24T03:04:27.112Z,7.95
2022-11-24T03:06:54.519Z,8.50
2022-11-24T03:09:21.936Z,7.45
2022-11-24T03:11:49.280Z,7.43
2022-11-24T03:14:16.935Z,8.05
2022-11-24T03:16:44.206Z,7.80
2022-11-24T03:19:11.846Z,7.47
2022-11-24T03:21:39.895Z,8.00
2022-11-24T03:24:07.497Z,7.50
2022-11-24T03:26:34.985Z,7.55
2022-11-24T03:29:02.861Z,7.75
2022-11-24T03:31:30.163Z,7.57
2022-11-24T03:33:57.689Z,8.10
2022-11-24T03:36:25.150Z,8.32
2022-11-24T03:38:52.690Z,8.20
2022-11-24T03:41:19.967Z,7.47
2022-11-24T03:43:47.692Z,7.95
2022-11-24T03:46:15.047Z,7.68
2022-11-24T03:48:42.556Z,7.68
2022-11-24T03:51:10.698Z,7.93
2022-11-24T03:53:38.312Z,7.47
2022-11-24T03:56:05.911Z,7.90
2022-11-24T03:58:33.431Z,8.35
2022-11-24T04:01:01.536Z,8.07
2022-11-24T04:03:29.452Z,8.63
2022-11-24T04:05:56.684Z,7.82
2022-11-24T04:08:24.488Z,7.72
2022-11-24T04:10:53.731Z,7.70
2022-11-24T04:13:23.110Z,7.55
2022-11-24T04:15:50.881Z,7.80
2022-11-24T04:18:18.976Z,7.72
2022-11-24T04:20:49.787Z,7.97
2022-11-24T04:23:17.809Z,7.93
2022-11-24T04:25:45.177Z,7.68
2022-11-24T04:28:12.757Z,7.57
2022-11-24T04:30:44.457Z,8.23
2022-11-24T04:33:12.730Z,7.85
2022-11-24T04:35:40.063Z,7.72
2022-11-24T04:38:07.891Z,7.82
2022-11-24T04:40:35.136Z,7.78
2022-11-24T04:43:02.656Z,8.05
2022-11-24T04:45:29.976Z,7.90
2022-11-24T04:47:57.576Z,7.90
2022-11-24T04:50:24.851Z,7.70
2022-11-24T04:52:53.078Z,8.07
2022-11-24T04:55:20.784Z,7.68
2022-11-24T04:57:48.417Z,8.02
2022-11-24T05:00:16.769Z,8.00
2022-11-24T05:02:44.305Z,7.95
2022-11-24T05:05:11.621Z,7.80
2022-11-24T05:07:39.535Z,7.10
2022-11-24T05:10:26.149Z,7.22
2022-11-24T05:12:56.325Z,7.90
2022-11-24T05:15:23.909Z,7.75
2022-11-24T05:17:52.220Z,7.95
2022-11-24T05:20:20.159Z,8.00
2022-11-24T05:22:47.748Z,7.63
2022-11-24T05:25:15.083Z,7.88
2022-11-24T05:27:42.875Z,7.45
2022-11-24T05:30:10.608Z,7.80
2022-11-24T05:32:38.272Z,7.63
2022-11-24T05:35:06.200Z,8.10
2022-11-24T05:37:33.839Z,8.18
2022-11-24T05:40:01.056Z,7.63
2022-11-24T05:42:46.285Z,7.38
2022-11-24T05:45:20.140Z,7.38
2022-11-24T05:47:49.973Z,8.00
2022-11-24T05:50:19.536Z,7.82
2022-11-24T05:52:47.560Z,7.25
2022-11-24T05:55:15.899Z,7.50
2022-11-24T05:57:43.639Z,7.88
2022-11-24T06:00:12.918Z,7.13
2022-11-24T06:02:41.033Z,7.53
2022-11-24T06:05:09.089Z,7.22
2022-11-24T06:07:36.884Z,7.65
2022-11-24T06:10:04.498Z,7.82
2022-11-24T06:12:32.100Z,7.38
2022-11-24T06:14:59.360Z,8.48
2022-11-24T06:17:27.269Z,6.85
2022-11-24T06:19:57.162Z,7.75
2022-11-24T06:22:24.820Z,7.60
2022-11-24T06:24:52.196Z,7.97
2022-11-24T06:27:19.748Z,8.07
2022-11-24T06:29:47.526Z,7.68
2022-11-24T06:32:15.214Z,7.90
2022-11-24T06:34:42.696Z,7.32
2022-11-24T06:37:10.864Z,7.57
2022-11-24T06:39:38.256Z,8.00
2022-11-24T06:42:05.961Z,7.65
2022-11-24T06:44:33.587Z,8.23
2022-11-24T06:47:01.663Z,7.65
2022-11-24T06:49:29.256Z,7.25
2022-11-24T06:51:56.938Z,7.40
2022-11-24T06:54:24.268Z,6.85
2022-11-24T06:56:56.684Z,8.00
2022-11-24T06:59:24.361Z,7.50
2022-11-24T07:01:52.480Z,7.90
2022-11-24T07:04:20.351Z,7.75
2022-11-24T07:06:48.281Z,7.43
2022-11-24T07:09:15.632Z,8.23
2022-11-24T07:11:43.444Z,7.32
2022-11-24T07:14:11.274Z,7.85
2022-11-24T07:16:39.467Z,8.05
2022-11-24T07:19:06.744Z,8.23
2022-11-24T07:21:34.467Z,7.68
2022-11-24T07:24:01.711Z,8.05
2022-11-24T07:26:29.320Z,7.47
2022-11-24T07:28:56.923Z,7.22
2022-11-24T07:31:25.137Z,6.78
2022-11-24T07:33:54.472Z,7.75
2022-11-24T07:36:22.874Z,7.72
2022-11-24T07:38:50.750Z,7.57
2022-11-24T07:41:19.811Z,7.53
2022-11-24T07:43:48.575Z,7.93
2022-11-24T07:46:19.012Z,7.80
2022-11-24T07:48:46.901Z,7.10
2022-11-24T07:51:15.772Z,6.78
2022-11-24T07:53:43.767Z,7.90
2022-11-24T07:56:12.513Z,7.97
2022-11-24T07:58:39.831Z,7.63
2022-11-24T08:01:13.155Z,7.50
2022-11-24T08:03:41.200Z,8.32
2022-11-24T08:06:27.221Z,7.50
2022-11-24T08:08:57.904Z,7.68
2022-11-24T08:11:25.821Z,7.72
2022-11-24T08:13:53.444Z,7.20
2022-11-24T08:16:22.095Z,7.47
2022-11-24T08:18:51.573Z,8.57
2022-11-24T08:21:20.009Z,7.35
2022-11-24T08:23:47.267Z,7.05
2022-11-24T08:26:18.827Z,7.85
2022-11-24T08:28:47.605Z,7.60
2022-11-24T08:31:18.654Z,8.10
2022-11-24T08:33:46.792Z,7.43
2022-11-24T08:36:17.252Z,7.45
2022-11-24T08:38:45.429Z,7.28
2022-11-24T08:41:15.228Z,7.85
2022-11-24T08:43:42.889Z,7.25
2022-11-24T08:46:13.800Z,7.50
2022-11-24T08:48:41.542Z,8.13
2022-11-24T08:51:12.777Z,7.95
2022-11-24T08:53:41.033Z,8.27
2022-11-24T08:56:10.132Z,8.52
2022-11-24T08:58:38.386Z,7.85
2022-11-24T09:01:08.963Z,7.18
2022-11-24T09:03:37.711Z,7.88
2022-11-24T09:06:07.092Z,7.75
2022-11-24T09:08:35.068Z,7.25
2022-11-24T09:11:11.775Z,7.55
2022-11-24T09:13:39.841Z,7.95
2022-11-24T09:16:11.818Z,7.88
2022-11-24T09:18:39.746Z,8.63
2022-11-24T09:21:11.940Z,7.50
2022-11-24T09:23:40.192Z,7.90
2022-11-24T09:26:11.779Z,8.20
2022-11-24T09:28:40.600Z,7.90
2022-11-24T09:31:12.388Z,7.68
2022-11-24T09:33:41.217Z,8.23
2022-11-24T09:36:09.646Z,8.02
2022-11-24T09:38:37.006Z,7.95
2022-11-24T09:41:43.586Z,7.53
2022-11-24T09:47:38.391Z,8.02
2022-11-24T09:50:14.608Z,8.13
2022-11-24T09:53:03.928Z,7.97
2022-11-24T09:55:38.140Z,8.07
2022-11-24T09:58:24.266Z,7.35
2022-11-24T10:00:54.449Z,7.93
2022-11-24T10:03:47.321Z,7.72
2022-11-24T10:06:40.242Z,8.13
2022-11-24T10:09:39.585Z,7.88
2022-11-24T10:12:16.192Z,7.88
2022-11-24T10:15:02.514Z,8.00
2022-11-24T10:17:45.536Z,7.70
2022-11-24T10:20:36.285Z,8.10
2022-11-24T10:23:29.295Z,7.63
2022-11-24T10:25:59.072Z,8.10
2022-11-24T10:28:48.907Z,8.48
2022-11-24T10:31:30.164Z,8.18
2022-11-24T10:34:21.048Z,8.35
2022-11-24T10:37:00.774Z,8.35
2022-11-24T10:39:50.522Z,8.00
2022-11-24T10:42:30.296Z,8.52
2022-11-24T10:45:12.587Z,7.75
2022-11-24T10:47:41.643Z,8.95
2022-11-24T10:50:27.025Z,8.18
2022-11-24T10:53:13.398Z,8.52
2022-11-24T10:55:56.441Z,8.95
2022-11-24T10:58:26.996Z,9.23
2022-11-24T11:00:55.707Z,9.25
2022-11-24T11:03:26.481Z,9.50
2022-11-24T11:06:15.447Z,8.93
2022-11-24T11:08:43.100Z,9.23
2022-11-24T11:11:28.493Z,9.73
2022-11-24T11:14:03.453Z,10.07
2022-11-24T11:16:40.635Z,9.05
2022-11-24T11:19:58.516Z,9.00
2022-11-24T11:22:28.479Z,9.20
2022-11-24T11:25:11.327Z,9.30
2022-11-24T11:27:40.319Z,9.20
2022-11-24T11:36:11.786Z,9.60
2022-11-24T11:38:40.351Z,9.98
2022-11-24T11:41:20.591Z,9.25
2022-11-24T11:43:53.364Z,9.93
2022-11-24T11:46:21.692Z,9.45
2022-11-24T11:48:49.349Z,9.60
2022-11-24T11:51:34.959Z,9.75
2022-11-24T11:54:21.525Z,10.43
2022-11-24T11:56:57.083Z,9.48
2022-11-24T11:59:27.587Z,10.07
2022-11-24T12:02:20.226Z,9.77
2022-11-24T12:04:59.469Z,10.30
2022-11-24T12:07:58.369Z,10.30
2022-11-24T12:10:49.691Z,10.73
2022-11-24T12:13:43.296Z,9.95
2022-11-24T12:16:13.411Z,10.18
2022-11-24T12:19:02.803Z,10.43
2022-11-24T12:21:52.833Z,9.85
2022-11-24T12:24:53.127Z,9.82
2022-11-24T12:27:33.210Z,10.07
2022-11-24T12:30:03.796Z,9.90
2022-11-24T12:33:03.385Z,10.45
2022-11-24T12:35:44.664Z,10.10
2022-11-24T12:38:27.592Z,10.63
2022-11-24T12:44:28.024Z,10.20
2022-11-24T12:46:59.482Z,9.65
2022-11-24T12:49:35.943Z,9.85
2022-11-24T12:52:28.518Z,9.40
2022-11-24T12:54:56.772Z,9.27
2022-11-24T12:57:33.201Z,10.07
2022-11-24T13:00:10.090Z,9.85
2022-11-24T13:03:21.123Z,9.43
2022-11-24T13:06:11.314Z,9.55
2022-11-24T13:08:40.192Z,8.90
2022-11-24T13:11:22.768Z,9.98
2022-11-24T13:14:05.176Z,9.00
2022-11-24T13:16:41.138Z,9.32
2022-11-24T13:19:23.291Z,9.18
2022-11-24T13:22:01.867Z,9.68
2022-11-24T13:24:33.766Z,9.15
2022-11-24T13:27:13.488Z,9.65
2022-11-24T13:29:42.618Z,10.27
2022-11-24T13:32:11.615Z,9.57
2022-11-24T13:34:39.230Z,10.02
2022-11-24T13:37:36.558Z,9.80
2022-11-24T13:40:13.494Z,9.40
2022-11-24T13:42:57.111Z,9.18
2022-11-24T13:45:45.031Z,10.05
2022-11-24T13:48:22.842Z,9.38
2022-11-24T13:50:50.737Z,9.95
2022-11-24T13:53:32.006Z,9.70
2022-11-24T13:56:12.912Z,9.20
2022-11-24T13:58:49.769Z,9.63
2022-11-24T14:01:32.917Z,9.82
2022-11-24T14:04:30.455Z,10.27
2022-11-24T14:07:07.952Z,10.10
2022-11-24T14:09:51.987Z,9.70
2022-11-24T14:12:24.680Z,9.35
2022-11-24T14:14:56.799Z,10.23
2022-11-24T14:17:28.079Z,10.27
2022-11-24T14:19:57.124Z,9.85
2022-11-24T14:22:32.667Z,10.18
2022-11-24T14:25:02.012Z,10.15
2022-11-24T14:27:38.239Z,9.80
2022-11-24T14:30:20.493Z,10.30
2022-11-24T14:33:00.384Z,9.65
2022-11-24T14:35:33.054Z,10.13
2022-11-24T14:38:05.564Z,9.88
2022-11-24T14:41:13.573Z,10.00
2022-11-24T14:43:41.491Z,10.73
2022-11-24T14:46:17.751Z,9.68
2022-11-24T14:48:51.499Z,10.18
2022-11-24T14:51:29.804Z,9.65
2022-11-24T14:54:01.060Z,10.18
2022-11-24T14:56:32.256Z,9.75
2022-11-24T14:59:00.667Z,10.25
2022-11-24T15:01:30.214Z,9.98
2022-11-24T15:04:26.491Z,10.82
2022-11-24T15:07:25.975Z,10.63
2022-11-24T15:09:58.018Z,10.13
2022-11-24T15:12:40.724Z,10.70
2022-11-24T15:15:14.320Z,10.60
2022-11-24T15:17:55.164Z,9.55
2022-11-24T15:20:45.816Z,10.20
2022-11-24T15:23:30.152Z,10.10
2022-11-24T15:26:06.591Z,9.82
2022-11-24T15:28:33.984Z,10.38
2022-11-24T15:31:03.919Z,10.77
2022-11-24T15:33:32.034Z,10.52
2022-11-24T15:35:59.880Z,10.40
2022-11-24T15:38:27.327Z,11.15
2022-11-24T15:40:56.481Z,10.35
2022-11-24T15:43:33.652Z,10.95
2022-11-24T15:46:02.861Z,10.52
2022-11-24T15:48:30.351Z,10.65
2022-11-24T15:51:01.069Z,11.43
2022-11-24T15:53:34.148Z,11.18
2022-11-24T15:56:03.316Z,11.00
2022-11-24T15:58:30.617Z,11.10
2022-11-24T16:00:58.320Z,11.65
2022-11-24T16:06:22.258Z,11.32
2022-11-24T16:08:52.513Z,11.40
2022-11-24T16:11:20.820Z,11.68
2022-11-24T16:13:52.544Z,11.57
2022-11-24T16:16:23.259Z,12.13
2022-11-24T16:18:50.817Z,11.85
2022-11-24T16:21:19.100Z,11.63
2022-11-24T16:23:47.704Z,11.10
2022-11-24T16:26:15.319Z,12.45
2022-11-24T16:28:42.851Z,11.30
2022-11-24T16:31:10.668Z,11.32
2022-11-24T16:33:40.717Z,12.25
2022-11-24T16:36:08.749Z,11.30
2022-11-24T16:38:36.183Z,11.73
2022-11-24T16:41:04.160Z,11.98
2022-11-24T16:43:31.635Z,12.43
2022-11-24T16:46:08.769Z,11.48
2022-11-24T16:48:39.507Z,12.23
2022-11-24T16:51:11.740Z,12.98
2022-11-24T16:53:39.613Z,11.65
2022-11-24T16:56:08.087Z,12.63
2022-11-24T16:58:40.410Z,12.45
2022-11-24T17:01:13.553Z,12.43
2022-11-24T17:03:41.453Z,12.48
2022-11-24T17:06:12.769Z,12.20
2022-11-24T17:08:40.849Z,12.40
2022-11-24T17:11:17.224Z,11.95
2022-11-24T17:13:45.791Z,12.45
2022-11-24T17:16:15.865Z,12.48
2022-11-24T17:18:43.748Z,12.77
2022-11-24T17:21:18.056Z,12.35
2022-11-24T17:23:45.843Z,12.80
2022-11-24T17:26:15.471Z,12.88
2022-11-24T17:28:43.982Z,12.60
2022-11-24T17:31:26.139Z,13.40
2022-11-24T17:33:55.724Z,13.43
2022-11-24T17:36:23.879Z,13.55
2022-11-24T17:38:51.528Z,13.35
2022-11-24T17:41:19.992Z,13.60
2022-11-24T17:43:51.250Z,13.18
2022-11-24T17:46:19.170Z,13.30
2022-11-24T17:48:46.938Z,13.10
2022-11-24T17:51:16.735Z,12.73
2022-11-24T17:53:46.650Z,13.30
2022-11-24T17:56:17.368Z,14.18
2022-11-24T17:58:45.471Z,12.85
2022-11-24T18:01:14.606Z,13.85
2022-11-24T18:03:42.396Z,13.98
2022-11-24T18:06:11.816Z,14.77
2022-11-24T18:08:41.886Z,14.02
2022-11-24T18:11:12.895Z,14.75
2022-11-24T18:13:56.754Z,14.10
2022-11-24T18:16:29.900Z,13.60
2022-11-24T18:19:14.918Z,14.88
2022-11-24T18:21:44.708Z,14.43
2022-11-24T18:24:13.034Z,15.05
2022-11-24T18:26:41.806Z,13.38
2022-11-24T18:29:11.254Z,14.70
2022-11-24T18:31:39.410Z,14.45
2022-11-24T18:34:07.487Z,15.32
2022-11-24T18:36:35.493Z,15.23
2022-11-24T18:39:05.848Z,14.80
2022-11-24T18:41:33.435Z,14.93
2022-11-24T18:44:07.908Z,14.98
2022-11-24T18:46:36.858Z,15.13
2022-11-24T18:49:04.676Z,15.48
2022-11-24T18:51:31.976Z,15.80
2022-11-24T18:54:00.078Z,16.45
2022-11-24T18:56:27.503Z,16.42
2022-11-24T18:58:56.282Z,16.33
2022-11-24T19:01:26.472Z,15.60
2022-11-24T19:03:56.911Z,16.00
2022-11-24T19:06:35.226Z,15.55
2022-11-24T19:09:12.920Z,18.00
2022-11-24T19:11:42.769Z,16.80
2022-11-24T19:14:16.641Z,15.55
2022-11-24T19:16:46.291Z,16.48
2022-11-24T19:19:14.260Z,16.77
2022-11-24T19:21:41.705Z,17.48
2022-11-24T19:24:10.302Z,17.40
2022-11-24T19:26:38.387Z,16.58
2022-11-24T19:29:07.059Z,16.35
2022-11-24T19:31:35.249Z,16.73
2022-11-24T19:34:03.486Z,16.77
2022-11-24T19:36:32.401Z,17.25
2022-11-24T19:39:00.126Z,16.55
2022-11-24T19:41:31.780Z,16.80
2022-11-24T19:43:59.952Z,15.88
2022-11-24T19:46:29.437Z,16.73
2022-11-24T19:49:02.143Z,17.30
2022-11-24T19:51:33.135Z,16.63
2022-11-24T19:54:00.927Z,16.40
2022-11-24T19:56:30.920Z,18.10
2022-11-24T19:58:58.602Z,16.85
2022-11-24T20:01:32.082Z,17.00
2022-11-24T20:04:02.189Z,16.98
2022-11-24T20:06:36.679Z,16.58
2022-11-24T20:09:07.301Z,17.48
2022-11-24T20:11:35.218Z,17.40
2022-11-24T20:14:05.219Z,16.52
2022-11-24T20:16:34.523Z,17.73
2022-11-24T20:19:07.844Z,17.02
2022-11-24T20:21:37.207Z,16.35
2022-11-24T20:24:07.855Z,17.02
2022-11-24T20:26:39.216Z,17.13
2022-11-24T20:29:09.871Z,16.70
2022-11-24T20:31:39.879Z,17.08
2022-11-24T20:34:08.656Z,17.25
2022-11-24T20:36:39.791Z,16.48
2022-11-24T20:39:14.907Z,17.02
2022-11-24T20:41:42.469Z,17.23
2022-11-24T20:44:13.677Z,17.25
2022-11-24T20:46:43.219Z,15.93
2022-11-24T20:49:14.003Z,16.67
2022-11-24T20:51:44.060Z,16.58
2022-11-24T20:54:15.688Z,16.75
2022-11-24T20:56:44.536Z,17.30
2022-11-24T20:59:14.889Z,16.88
2022-11-24T21:01:45.361Z,17.25
2022-11-24T21:04:16.526Z,16.30
2022-11-24T21:06:44.322Z,17.15
2022-11-24T21:09:12.310Z,16.52
2022-11-24T21:11:40.323Z,16.63
2022-11-24T21:14:09.494Z,17.35
2022-11-24T21:16:39.163Z,17.63
2022-11-24T21:19:11.244Z,16.70
2022-11-24T21:21:40.451Z,16.90
2022-11-24T21:24:15.165Z,17.00
2022-11-24T21:26:47.367Z,17.20
2022-11-24T21:29:22.282Z,17.15
2022-11-24T21:31:49.907Z,17.63
2022-11-24T21:34:20.852Z,17.27
2022-11-24T21:36:48.408Z,17.27
2022-11-24T21:39:16.800Z,17.75
2022-11-24T21:41:44.573Z,17.95
2022-11-24T21:44:13.505Z,18.25
2022-11-24T21:46:46.066Z,18.33
2022-11-24T21:49:17.049Z,17.40
2022-11-24T21:51:44.312Z,17.38
2022-11-24T21:54:12.846Z,17.00
2022-11-24T21:56:40.854Z,17.48
2022-11-24T21:59:08.570Z,17.63
2022-11-24T22:01:35.956Z,17.65
2022-11-24T22:04:04.875Z,18.13
2022-11-24T22:06:33.213Z,18.38
2022-11-24T22:09:01.216Z,17.67
2022-11-24T22:11:28.591Z,18.08
2022-11-24T22:13:56.186Z,18.70
2022-11-24T22:16:24.670Z,18.17
2022-11-24T22:18:52.618Z,17.73
2022-11-24T22:21:33.373Z,18.25
2022-11-24T22:24:01.631Z,17.50
2022-11-24T22:26:30.015Z,17.70
2022-11-24T22:28:58.041Z,19.15
2022-11-24T22:31:31.104Z,18.65
2022-11-24T22:34:00.569Z,17.88
2022-11-24T22:36:29.851Z,19.30
2022-11-24T22:39:05.599Z,18.33
2022-11-24T22:41:34.985Z,18.13
2022-11-24T22:44:03.524Z,19.17
2022-11-24T22:46:31.888Z,18.67
2022-11-24T22:49:00.827Z,19.15
2022-11-24T22:51:31.248Z,18.90
2022-11-24T22:54:02.230Z,19.67
2022-11-24T22:56:32.262Z,19.58
2022-11-24T22:59:01.012Z,20.17
2022-11-24T23:01:29.384Z,19.50
2022-11-24T23:03:57.203Z,19.60
2022-11-24T23:06:27.838Z,20.08
2022-11-24T23:08:57.512Z,19.52
2022-11-24T23:11:34.900Z,20.75
2022-11-24T23:14:12.145Z,19.25
2022-11-24T23:16:39.971Z,20.63
2022-11-24T23:19:08.706Z,21.00
2022-11-24T23:21:38.469Z,20.35
2022-11-24T23:24:06.993Z,21.23
2022-11-24T23:26:37.296Z,20.90
2022-11-24T23:29:05.831Z,21.38
2022-11-24T23:31:33.901Z,21.20
2022-11-24T23:34:03.485Z,21.92
2022-11-24T23:36:32.215Z,21.30
2022-11-24T23:39:05.296Z,21.77
2022-11-24T23:41:32.738Z,22.67
2022-11-24T23:44:00.444Z,20.98
2022-11-24T23:46:28.416Z,22.58
2022-11-24T23:48:56.752Z,22.23
2022-11-24T23:51:29.116Z,23.33
2022-11-24T23:53:57.696Z,22.77
2022-11-24T23:56:32.367Z,22.17
2022-11-24T23:59:01.877Z,23.05
